Terminal Aerodrome Forecast
Issued by NWS Mt. Holly, NJ

Home | Current Version | Previous Version | Text Only | Print | Product List | Glossary On
Versions: 1 2 3 4 5 6 7 8 9 10 11 12 13 14 15 16 17
000
FTUS41 KPHI 220522
TAFTTN
TAF
KTTN 220522Z 2206/2306 VRB02KT P6SM BKN150
     FM221200 VRB03KT P6SM VCSH OVC070
     FM221500 14005KT P6SM OVC060 PROB30 2215/2218 5SM -SHRA
     FM221800 14006KT 6SM -SHRA OVC050 PROB30 2218/2219 5SM TS
      OVC050CB
     FM230200 VRB03KT P6SM OVC010
     FM230400 VRB03KT P6SM OVC006=

USA.gov is the U.S. government's official web portal to all federal, state and local government web resources and services.